Time;durP1;ratioP1;P1;durP2;ratioP2;P2;SDS_P1;SDS_P2;PMS_P1;PMS_P2;Temp;Humidity;BMP_temperature;BMP_pressure;BME280_temperature;BME280_humidity;BME280_pressure;Samples;Min_cycle;Max_cycle;Signal;HPM_P1;HPM_P2
2022/04/08 00:01:07;;;;;;;0.10;0.10;;;7.60;99.90;12.80;88045.00;;;;5012832;28;20200;-69
2022/04/08 00:03:35;;;;;;;0.10;0.10;;;7.60;99.90;12.80;88045.00;;;;5011410;28;20286;-69
2022/04/08 00:06:03;;;;;;;0.10;0.10;;;7.60;99.90;12.80;88045.00;;;;5012106;28;20303;-69
2022/04/08 00:08:31;;;;;;;0.10;0.10;;;7.50;99.90;12.80;88045.00;;;;5006786;28;20334;-69
2022/04/08 00:10:59;;;;;;;0.00;0.00;;;7.60;99.90;12.80;88045.00;;;;4993890;28;20203;-69
2022/04/08 00:13:27;;;;;;;0.10;0.10;;;7.60;99.90;12.80;88045.00;;;;5011831;28;20759;-69
2022/04/08 00:15:55;;;;;;;0.08;0.08;;;7.50;99.90;12.80;88045.00;;;;5012567;28;20211;-70
2022/04/08 00:18:24;;;;;;;0.10;0.10;;;7.50;99.90;12.80;88045.00;;;;5007549;28;20790;-69
2022/04/08 00:20:52;;;;;;;0.00;0.00;;;7.50;99.90;12.80;88045.00;;;;4993024;28;20653;-69
2022/04/08 00:23:20;;;;;;;0.10;0.10;;;7.40;99.90;12.80;88045.00;;;;4992808;28;20208;-69
2022/04/08 00:25:48;;;;;;;0.00;0.00;;;7.50;99.90;12.80;88045.00;;;;5006337;28;20215;-70
2022/04/08 00:28:16;;;;;;;0.10;0.10;;;7.50;99.90;12.80;88045.00;;;;5013661;28;20592;-70
2022/04/08 00:30:44;;;;;;;0.10;0.10;;;7.50;99.90;12.80;88045.00;;;;5005339;28;20200;-70
2022/04/08 00:33:12;;;;;;;0.10;0.10;;;7.50;99.90;12.80;88045.00;;;;4998893;28;20223;-71
2022/04/08 00:35:42;;;;;;;0.10;0.10;;;7.50;99.90;12.80;88045.00;;;;4992867;28;20224;-70
2022/04/08 00:38:10;;;;;;;0.10;0.10;;;7.50;99.90;12.80;88045.00;;;;5022510;28;20199;-69
2022/04/08 00:40:38;;;;;;;0.10;0.10;;;7.40;99.90;12.80;88045.00;;;;5012063;28;20600;-69
2022/04/08 00:43:14;;;;;;;0.10;0.10;;;7.40;99.90;12.80;88045.00;;;;5012859;28;20253;-69
2022/04/08 00:45:42;;;;;;;0.10;0.10;;;7.40;99.90;12.80;88045.00;;;;5031904;28;20558;-69
2022/04/08 00:48:11;;;;;;;0.10;0.10;;;7.40;99.90;12.80;88045.00;;;;5031273;28;20187;-69
2022/04/08 00:50:43;;;;;;;0.10;0.10;;;7.40;99.90;12.80;88045.00;;;;5021206;28;20203;-69
2022/04/08 00:53:11;;;;;;;0.10;0.10;;;7.40;99.90;12.80;88045.00;;;;5012086;28;20191;-69
2022/04/08 00:55:40;;;;;;;0.10;0.10;;;7.50;99.90;12.80;88045.00;;;;5008880;28;20220;-70
2022/04/08 00:58:08;;;;;;;0.10;0.10;;;7.40;99.90;12.80;88045.00;;;;4987068;28;20688;-71
2022/04/08 01:00:38;;;;;;;0.10;0.10;;;7.40;99.90;12.80;88045.00;;;;4994256;28;20200;-69
2022/04/08 01:03:06;;;;;;;0.10;0.10;;;7.40;99.90;12.80;88045.00;;;;4994509;28;20206;-69
2022/04/08 01:05:35;;;;;;;0.10;0.10;;;7.40;99.90;12.80;88045.00;;;;5011576;28;20239;-69
2022/04/08 01:08:05;;;;;;;0.10;0.10;;;7.50;99.90;12.80;88045.00;;;;5013999;28;20278;-69
2022/04/08 01:10:33;;;;;;;0.10;0.10;;;7.50;99.90;12.80;88045.00;;;;4998035;28;20583;-69
2022/04/08 01:13:02;;;;;;;0.10;0.10;;;7.50;99.90;12.80;88045.00;;;;5013639;28;20739;-70
2022/04/08 01:15:31;;;;;;;0.10;0.10;;;7.50;99.90;12.80;88045.00;;;;5015378;28;20293;-70
2022/04/08 01:17:59;;;;;;;0.10;0.10;;;7.50;99.90;12.80;88045.00;;;;5030185;28;20199;-70
2022/04/08 01:20:27;;;;;;;0.10;0.10;;;7.50;99.90;12.80;88045.00;;;;5027817;28;20196;-70
2022/04/08 01:22:55;;;;;;;0.10;0.10;;;7.50;99.90;12.80;88045.00;;;;5033190;28;20198;-70
2022/04/08 01:25:24;;;;;;;0.10;0.10;;;7.50;99.90;12.80;88045.00;;;;5027845;28;20675;-70
2022/04/08 01:27:52;;;;;;;0.10;0.10;;;7.50;99.90;12.80;88045.00;;;;5015344;28;20196;-70
2022/04/08 01:30:20;;;;;;;0.10;0.10;;;7.50;99.90;12.80;88045.00;;;;5015128;28;20574;-70
2022/04/08 01:32:48;;;;;;;0.10;0.10;;;7.50;99.90;12.80;88045.00;;;;5015114;28;20275;-70
2022/04/08 01:35:16;;;;;;;0.10;0.10;;;7.50;99.90;12.80;88045.00;;;;5030920;28;20229;-70
2022/04/08 01:37:45;;;;;;;0.10;0.10;;;7.50;99.90;12.80;88045.00;;;;5014995;28;20200;-70
2022/04/08 01:40:13;;;;;;;0.10;0.10;;;7.50;99.90;12.80;88045.00;;;;5020476;28;20204;-70
2022/04/08 01:42:42;;;;;;;0.10;0.10;;;7.50;99.90;12.80;88045.00;;;;5019312;28;20211;-70
2022/04/08 01:45:11;;;;;;;0.10;0.10;;;7.50;99.90;12.80;88045.00;;;;5015292;28;20202;-70
2022/04/08 01:47:39;;;;;;;0.10;0.10;;;7.50;99.90;12.80;88045.00;;;;5014674;28;20229;-70
2022/04/08 01:50:08;;;;;;;0.10;0.10;;;7.40;99.90;12.80;88045.00;;;;5023150;28;20198;-70
2022/04/08 01:52:36;;;;;;;0.10;0.10;;;7.40;99.90;12.80;88045.00;;;;5032912;28;20198;-69
2022/04/08 01:55:05;;;;;;;0.10;0.10;;;7.30;99.90;12.80;88045.00;;;;5034515;28;20292;-70
2022/04/08 01:57:33;;;;;;;0.05;0.05;;;7.30;99.90;12.80;88045.00;;;;5019076;28;20200;-69
2022/04/08 02:00:06;;;;;;;0.10;0.10;;;7.40;99.90;12.80;88045.00;;;;5014735;28;20211;-69
2022/04/08 02:02:40;;;;;;;0.10;0.10;;;7.30;1.00;12.80;88045.00;;;;5014469;28;20191;-70
2022/04/08 02:05:09;;;;;;;0.10;0.10;;;7.30;1.00;12.80;88045.00;;;;5014681;28;20196;-70
2022/04/08 02:07:37;;;;;;;0.10;0.10;;;7.30;1.00;12.80;88045.00;;;;5014524;28;20188;-70
2022/04/08 02:10:07;;;;;;;0.10;0.10;;;7.30;1.00;12.80;88045.00;;;;5014482;28;20587;-69
2022/04/08 02:12:35;;;;;;;0.10;0.10;;;7.30;1.00;12.80;88045.00;;;;5013615;28;20199;-69
2022/04/08 02:15:06;;;;;;;0.00;0.00;;;7.30;1.00;12.80;88045.00;;;;5014011;28;20230;-69
2022/04/08 02:17:34;;;;;;;0.10;0.10;;;7.30;1.00;12.80;88045.00;;;;5013687;28;20195;-69
2022/04/08 02:20:04;;;;;;;0.10;0.10;;;7.30;1.00;12.80;88045.00;;;;5014617;28;20192;-69
2022/04/08 02:22:34;;;;;;;0.10;0.10;;;7.30;1.00;12.80;88045.00;;;;5014573;28;20196;-70
2022/04/08 02:25:02;;;;;;;0.10;0.10;;;7.30;1.00;12.80;88045.00;;;;5007422;28;20212;-69
2022/04/08 02:27:32;;;;;;;0.10;0.10;;;7.30;1.00;12.80;88045.00;;;;5000101;28;20200;-71
2022/04/08 02:30:00;;;;;;;0.10;0.10;;;7.30;1.00;12.80;88045.00;;;;5014333;28;20571;-70
2022/04/08 02:32:29;;;;;;;0.10;0.10;;;7.30;1.00;12.80;88045.00;;;;5015165;28;20199;-70
2022/04/08 02:34:57;;;;;;;0.10;0.10;;;7.30;1.00;12.80;88045.00;;;;5033780;28;20222;-69
2022/04/08 02:37:25;;;;;;;0.10;0.10;;;7.40;1.00;12.80;88045.00;;;;5033245;28;20265;-70
2022/04/08 02:39:53;;;;;;;0.00;0.00;;;7.40;1.00;12.80;88045.00;;;;5019646;28;20200;-70
2022/04/08 02:42:21;;;;;;;0.00;0.00;;;7.30;1.00;12.80;88045.00;;;;5014792;28;20584;-69
2022/04/08 02:44:49;;;;;;;0.00;0.00;;;7.30;51.40;12.80;88045.00;;;;5033828;28;20191;-69
2022/04/08 02:47:17;;;;;;;0.10;0.10;;;7.30;99.90;12.80;88045.00;;;;5033433;28;20621;-69
2022/04/08 02:49:46;;;;;;;0.10;0.10;;;7.20;99.90;12.80;88045.00;;;;5011996;28;20216;-69
2022/04/08 02:52:14;;;;;;;0.10;0.10;;;7.20;99.90;12.80;88045.00;;;;5028572;28;20195;-71
2022/04/08 02:54:42;;;;;;;0.10;0.10;;;7.20;99.90;12.80;88045.00;;;;5032246;28;20206;-70
2022/04/08 02:57:10;;;;;;;0.10;0.10;;;7.10;99.90;12.80;88045.00;;;;5013944;28;20269;-70
2022/04/08 02:59:38;;;;;;;0.10;0.10;;;7.00;99.90;12.80;88045.00;;;;5026253;28;20203;-70
2022/04/08 03:02:06;;;;;;;0.10;0.10;;;7.00;99.90;12.80;88045.00;;;;5033592;28;20195;-70
2022/04/08 03:04:35;;;;;;;0.10;0.10;;;6.90;99.90;12.80;88045.00;;;;5033666;28;20256;-71
2022/04/08 03:07:05;;;;;;;0.10;0.10;;;7.00;99.90;12.80;88045.00;;;;5034126;28;20226;-72
2022/04/08 03:09:33;;;;;;;0.10;0.10;;;6.90;99.90;12.80;88045.00;;;;5033361;28;20195;-71
2022/04/08 03:12:01;;;;;;;0.00;0.00;;;6.80;99.90;12.80;88045.00;;;;5039775;28;20201;-71
2022/04/08 03:14:29;;;;;;;0.10;0.10;;;6.80;99.90;12.80;88045.00;;;;5019150;28;20188;-70
2022/04/08 03:16:57;;;;;;;0.10;0.10;;;6.70;99.90;12.80;88045.00;;;;5013046;28;20234;-71
2022/04/08 03:19:25;;;;;;;0.10;0.10;;;6.70;99.90;12.80;88045.00;;;;5013410;28;20196;-71
2022/04/08 03:21:54;;;;;;;0.10;0.10;;;6.70;99.90;12.80;88045.00;;;;5013429;28;20188;-70
2022/04/08 03:24:23;;;;;;;0.10;0.10;;;6.70;99.90;12.80;88045.00;;;;5013168;28;20195;-70
2022/04/08 03:26:51;;;;;;;0.10;0.10;;;6.70;99.90;12.80;88045.00;;;;5012994;28;20234;-70
2022/04/08 03:29:19;;;;;;;0.10;0.10;;;6.70;99.90;12.80;88045.00;;;;5013166;28;20225;-70
2022/04/08 03:31:47;;;;;;;0.10;0.10;;;6.70;99.90;12.80;88045.00;;;;5011736;28;20207;-70
2022/04/08 03:34:16;;;;;;;0.10;0.10;;;6.60;99.90;12.80;88045.00;;;;5013280;28;20191;-70
2022/04/08 03:36:45;;;;;;;0.10;0.10;;;6.60;99.90;12.80;88045.00;;;;5012866;28;20223;-71
2022/04/08 03:39:16;;;;;;;0.10;0.10;;;6.60;99.90;12.80;88045.00;;;;5015079;28;20203;-70
2022/04/08 03:41:45;;;;;;;0.10;0.10;;;6.50;99.90;12.80;88045.00;;;;5016699;28;20194;-70
2022/04/08 03:44:14;;;;;;;0.10;0.10;;;6.50;99.90;12.80;88045.00;;;;5012971;28;20610;-70
2022/04/08 03:46:43;;;;;;;0.10;0.10;;;6.60;99.90;12.80;88045.00;;;;5015984;28;20594;-71
2022/04/08 03:49:14;;;;;;;0.10;0.10;;;6.60;99.90;12.80;88045.00;;;;5014964;28;20199;-70
2022/04/08 03:51:42;;;;;;;0.10;0.10;;;6.60;99.90;12.80;88045.00;;;;5026899;28;20218;-69
2022/04/08 03:54:18;;;;;;;0.00;0.00;;;6.60;99.90;12.80;88045.00;;;;5012768;28;20653;-69
2022/04/08 03:56:47;;;;;;;0.10;0.10;;;6.70;99.90;12.80;88045.00;;;;5015154;28;20779;-70
2022/04/08 03:59:16;;;;;;;0.08;0.08;;;6.60;99.90;12.80;88045.00;;;;5019341;28;20195;-70
2022/04/08 04:01:44;;;;;;;0.10;0.10;;;6.60;99.90;12.80;88045.00;;;;5032677;28;20195;-69
2022/04/08 04:04:13;;;;;;;0.10;0.10;;;6.60;99.90;12.80;88045.00;;;;5007206;28;20231;-70
2022/04/08 04:06:41;;;;;;;0.10;0.10;;;6.60;99.90;12.80;88045.00;;;;4976012;28;20299;-70
2022/04/08 04:09:08;;;;;;;0.10;0.10;;;6.60;99.90;12.80;88045.00;;;;5024413;28;20253;-69
2022/04/08 04:11:36;;;;;;;0.10;0.10;;;6.60;99.90;12.80;88045.00;;;;5022437;28;20222;-70
2022/04/08 04:14:06;;;;;;;0.10;0.10;;;6.60;99.90;12.80;88045.00;;;;5015267;28;20203;-69
2022/04/08 04:16:34;;;;;;;0.10;0.10;;;6.60;99.90;12.80;88045.00;;;;5012463;28;20219;-70
2022/04/08 04:19:03;;;;;;;0.10;0.10;;;6.60;99.90;12.80;88045.00;;;;5007558;28;20195;-70
2022/04/08 04:21:32;;;;;;;0.10;0.10;;;6.50;99.90;12.80;88045.00;;;;5013536;28;20200;-70
2022/04/08 04:24:00;;;;;;;0.10;0.10;;;6.50;99.90;12.80;88045.00;;;;5010528;28;20196;-70
2022/04/08 04:26:28;;;;;;;0.10;0.10;;;6.50;99.90;12.80;88045.00;;;;5004851;28;20276;-70
2022/04/08 04:28:56;;;;;;;0.10;0.10;;;6.40;99.90;12.80;88045.00;;;;5000107;28;20760;-71
2022/04/08 04:31:26;;;;;;;0.03;0.03;;;6.40;99.90;12.80;88045.00;;;;4992473;28;20197;-71
2022/04/08 04:33:54;;;;;;;0.10;0.10;;;6.30;99.90;12.80;88045.00;;;;5011995;28;20611;-71
2022/04/08 04:36:22;;;;;;;0.10;0.10;;;6.30;99.90;12.80;88045.00;;;;5011464;28;20281;-71
2022/04/08 04:38:50;;;;;;;0.10;0.10;;;6.20;99.90;12.80;88045.00;;;;5012236;28;20195;-71
2022/04/08 04:41:18;;;;;;;0.10;0.10;;;6.20;99.90;12.80;88045.00;;;;5015347;28;20266;-71
2022/04/08 04:43:46;;;;;;;0.10;0.10;;;6.20;99.90;12.80;88045.00;;;;5014622;28;20196;-71
2022/04/08 04:46:15;;;;;;;0.10;0.10;;;6.20;99.90;12.80;88045.00;;;;5012363;28;20305;-71
2022/04/08 04:48:44;;;;;;;0.10;0.10;;;6.20;99.90;12.80;88045.00;;;;5012474;28;20188;-71
2022/04/08 04:51:13;;;;;;;0.10;0.10;;;6.20;99.90;12.80;88045.00;;;;5012668;28;20211;-71
2022/04/08 04:53:41;;;;;;;0.10;0.10;;;6.20;99.90;12.80;88045.00;;;;5012555;28;20192;-71
2022/04/08 04:56:09;;;;;;;0.10;0.10;;;6.10;99.90;12.80;88045.00;;;;5011721;28;20213;-71
2022/04/08 04:58:37;;;;;;;0.10;0.10;;;6.10;99.90;12.80;88045.00;;;;5012881;28;20195;-71
2022/04/08 05:01:05;;;;;;;0.05;0.05;;;6.20;99.90;12.80;88045.00;;;;5012693;28;20676;-71
2022/04/08 05:03:39;;;;;;;0.08;0.08;;;6.20;99.90;12.80;88045.00;;;;5014046;28;20195;-71
2022/04/08 05:06:09;;;;;;;0.10;0.10;;;6.20;99.90;12.80;88045.00;;;;5012150;28;20712;-71
2022/04/08 05:08:37;;;;;;;0.10;0.10;;;6.20;99.90;12.80;88045.00;;;;5013199;28;20191;-71
2022/04/08 05:11:05;;;;;;;0.10;0.10;;;6.20;99.90;12.80;88045.00;;;;5014227;28;20204;-71
2022/04/08 05:13:33;;;;;;;0.10;0.10;;;6.20;99.90;12.80;88045.00;;;;5015430;28;20617;-71
2022/04/08 05:16:01;;;;;;;0.10;0.10;;;6.20;99.90;12.80;88045.00;;;;5016667;28;20223;-70
2022/04/08 05:18:30;;;;;;;0.10;0.10;;;6.20;99.90;12.80;88045.00;;;;5017770;28;20188;-76
2022/04/08 05:20:58;;;;;;;0.10;0.10;;;6.20;99.90;12.80;88045.00;;;;5015083;28;20387;-71
2022/04/08 05:23:29;;;;;;;0.10;0.10;;;6.20;99.90;12.80;88045.00;;;;5013164;28;20609;-70
2022/04/08 05:25:57;;;;;;;0.10;0.10;;;6.30;99.90;12.80;88045.00;;;;5013533;28;20304;-71
2022/04/08 05:28:25;;;;;;;0.00;0.00;;;6.30;99.90;12.80;88045.00;;;;5011642;28;20199;-71
2022/04/08 05:30:53;;;;;;;0.10;0.10;;;6.30;99.90;12.80;88045.00;;;;5012953;28;20196;-71
2022/04/08 05:33:22;;;;;;;0.10;0.10;;;6.30;99.90;12.80;88045.00;;;;5011924;28;20208;-70
2022/04/08 05:35:50;;;;;;;0.10;0.10;;;6.30;99.90;12.80;88045.00;;;;5012488;28;20220;-71
2022/04/08 05:38:18;;;;;;;0.00;0.00;;;6.40;99.90;12.80;88045.00;;;;5013293;28;20219;-71
2022/04/08 05:40:49;;;;;;;0.10;0.10;;;6.40;99.90;12.80;88045.00;;;;5012403;28;20223;-70
2022/04/08 05:43:17;;;;;;;0.10;0.10;;;6.50;99.90;12.80;88045.00;;;;5012285;28;20196;-71
2022/04/08 05:45:45;;;;;;;0.10;0.10;;;6.50;99.90;12.80;88045.00;;;;4994564;28;20626;-71
2022/04/08 05:48:13;;;;;;;0.10;0.10;;;6.50;99.90;12.80;88045.00;;;;5013636;28;20210;-71
2022/04/08 05:50:41;;;;;;;0.10;0.10;;;6.50;99.90;12.80;88045.00;;;;5012865;28;20213;-71
2022/04/08 05:53:09;;;;;;;0.10;0.10;;;6.50;99.90;12.80;88045.00;;;;5013046;28;20206;-71
2022/04/08 05:55:59;;;;;;;0.10;0.10;;;6.50;99.90;12.80;88045.00;;;;5012882;28;20247;-71
2022/04/08 05:58:27;;;;;;;0.10;0.10;;;6.50;99.90;12.80;88045.00;;;;5012312;28;20242;-71
2022/04/08 06:00:55;;;;;;;0.10;0.10;;;6.50;99.90;12.80;88045.00;;;;5012443;28;20561;-71
2022/04/08 06:03:23;;;;;;;0.10;0.10;;;6.50;99.90;12.80;88045.00;;;;5011453;28;20278;-71
2022/04/08 06:05:51;;;;;;;0.10;0.10;;;6.50;99.90;12.80;88045.00;;;;5011608;28;20598;-72
2022/04/08 06:08:20;;;;;;;0.10;0.10;;;6.50;99.90;12.80;88045.00;;;;5016778;28;20192;-72
2022/04/08 06:10:48;;;;;;;0.10;0.10;;;6.50;99.90;12.80;88045.00;;;;4999415;28;20210;-72
2022/04/08 06:13:17;;;;;;;0.10;0.10;;;6.40;99.90;12.80;88045.00;;;;4998315;28;20196;-71
2022/04/08 06:15:48;;;;;;;0.10;0.10;;;6.40;99.90;12.80;88045.00;;;;5015427;28;20770;-70
2022/04/08 06:18:18;;;;;;;0.00;0.00;;;6.50;99.90;12.80;88045.00;;;;5015665;28;20215;-70
2022/04/08 06:20:46;;;;;;;0.10;0.10;;;6.60;99.90;12.80;88045.00;;;;5016468;28;20192;-70
2022/04/08 06:23:14;;;;;;;0.05;0.05;;;6.70;99.90;12.80;88045.00;;;;5015894;28;20188;-70
2022/04/08 06:25:42;;;;;;;0.10;0.10;;;6.70;99.90;12.80;88045.00;;;;5015031;28;20218;-71
2022/04/08 06:28:10;;;;;;;0.10;0.10;;;6.80;99.90;12.80;88045.00;;;;5015669;28;20695;-70
2022/04/08 06:30:41;;;;;;;0.10;0.10;;;6.90;99.90;12.80;88045.00;;;;5014834;28;20254;-71
2022/04/08 06:33:10;;;;;;;0.10;0.10;;;7.00;99.90;12.80;88045.00;;;;5015612;28;20199;-70
2022/04/08 06:35:38;;;;;;;0.05;0.05;;;7.10;99.90;12.80;88045.00;;;;5014565;28;20220;-70
2022/04/08 06:38:08;;;;;;;0.10;0.10;;;7.10;99.90;12.80;88045.00;;;;5014994;28;20215;-70
2022/04/08 06:40:38;;;;;;;0.10;0.10;;;7.20;99.90;12.80;88045.00;;;;5014217;28;20661;-70
2022/04/08 06:43:07;;;;;;;0.10;0.10;;;7.10;99.90;12.80;88045.00;;;;5014661;28;20196;-70
2022/04/08 06:45:36;;;;;;;0.10;0.10;;;7.20;99.90;12.80;88045.00;;;;5015097;28;20277;-70
2022/04/08 06:48:06;;;;;;;0.10;0.10;;;7.10;99.90;12.80;88045.00;;;;5014338;28;20676;-69
2022/04/08 06:50:34;;;;;;;0.08;0.08;;;7.20;99.90;12.80;88045.00;;;;5014906;28;20599;-70
2022/04/08 06:53:03;;;;;;;0.10;0.10;;;7.20;99.90;12.80;88045.00;;;;5018325;28;20199;-70
2022/04/08 06:55:33;;;;;;;0.00;0.00;;;7.30;99.90;12.80;88045.00;;;;5014246;28;20215;-70
2022/04/08 06:58:03;;;;;;;0.00;0.00;;;7.30;99.90;12.80;88045.00;;;;5014965;28;20216;-69
2022/04/08 07:00:32;;;;;;;0.10;0.10;;;7.30;99.90;12.80;88045.00;;;;5007862;28;20201;-70
2022/04/08 07:03:01;;;;;;;0.10;0.10;;;7.20;99.90;12.80;88045.00;;;;5001834;28;20204;-70
2022/04/08 07:05:30;;;;;;;0.10;0.10;;;7.20;99.90;12.80;88045.00;;;;4994162;28;20224;-71
2022/04/08 07:07:59;;;;;;;0.10;0.10;;;7.30;99.90;12.80;88045.00;;;;4995844;28;20239;-70
2022/04/08 07:10:27;;;;;;;0.00;0.00;;;7.30;99.90;12.80;88045.00;;;;5013859;28;20223;-70
2022/04/08 07:12:55;;;;;;;0.00;0.00;;;7.40;99.90;12.80;88045.00;;;;5013996;28;20195;-70
2022/04/08 07:15:23;;;;;;;0.10;0.10;;;7.50;99.90;12.80;88045.00;;;;5014160;28;20220;-70
2022/04/08 07:17:51;;;;;;;0.10;0.10;;;7.40;99.90;12.80;88045.00;;;;5014844;28;20623;-70
2022/04/08 07:20:19;;;;;;;0.10;0.10;;;7.40;99.90;12.80;88045.00;;;;5017585;28;20199;-70
2022/04/08 07:22:49;;;;;;;0.00;0.00;;;7.40;99.90;12.80;88045.00;;;;5019583;28;20188;-70
2022/04/08 07:25:18;;;;;;;0.10;0.10;;;7.50;99.90;12.80;88045.00;;;;5003772;28;20263;-70
2022/04/08 07:27:48;;;;;;;0.08;0.08;;;7.60;99.90;12.80;88045.00;;;;4995145;28;20263;-70
2022/04/08 07:30:19;;;;;;;0.10;0.10;;;7.60;99.90;12.80;88045.00;;;;4997895;28;20208;-70
2022/04/08 07:32:50;;;;;;;0.00;0.00;;;7.60;99.90;12.80;88045.00;;;;5009613;28;20250;-70
2022/04/08 07:35:20;;;;;;;0.10;0.10;;;7.60;99.90;12.80;88045.00;;;;5005357;28;20208;-70
2022/04/08 07:37:49;;;;;;;0.10;0.10;;;7.60;99.90;12.80;88045.00;;;;4994681;28;20243;-70
2022/04/08 07:40:17;;;;;;;0.10;0.10;;;7.50;99.90;12.80;88045.00;;;;5009650;28;20207;-69
2022/04/08 07:42:45;;;;;;;0.08;0.08;;;7.60;99.90;12.80;88045.00;;;;5013372;28;20203;-70
2022/04/08 07:45:13;;;;;;;0.10;0.10;;;7.70;99.90;12.80;88045.00;;;;5013546;28;20196;-70
2022/04/08 07:47:42;;;;;;;0.10;0.10;;;7.60;99.90;12.80;88045.00;;;;5013690;28;20196;-70
2022/04/08 07:50:12;;;;;;;0.10;0.10;;;7.60;99.90;12.80;88045.00;;;;5005559;28;20280;-69
2022/04/08 07:52:41;;;;;;;0.10;0.10;;;7.70;99.90;12.80;88045.00;;;;5012509;28;20216;-70
2022/04/08 07:55:12;;;;;;;0.00;0.00;;;7.90;99.90;12.80;88045.00;;;;5014716;28;20195;-70
2022/04/08 07:57:47;;;;;;;0.10;0.10;;;7.90;99.90;12.80;88045.00;;;;5007565;28;20238;-72
2022/04/08 08:00:19;;;;;;;0.10;0.10;;;7.90;99.90;12.80;88045.00;;;;4993795;28;20299;-69
2022/04/08 08:02:48;;;;;;;0.10;0.10;;;7.80;99.90;12.80;88045.00;;;;4995075;28;20276;-70
2022/04/08 08:05:17;;;;;;;0.10;0.10;;;7.80;99.90;12.80;88045.00;;;;4994319;28;20200;-70
2022/04/08 08:07:48;;;;;;;0.10;0.10;;;7.70;99.90;12.80;88045.00;;;;4993683;28;20193;-70
2022/04/08 08:10:20;;;;;;;0.10;0.10;;;7.80;99.90;12.80;88045.00;;;;4993494;28;20259;-70
2022/04/08 08:12:49;;;;;;;0.10;0.10;;;7.70;99.90;12.80;88045.00;;;;4993945;28;20688;-69
2022/04/08 08:15:19;;;;;;;0.10;0.10;;;7.70;99.90;12.80;88045.00;;;;4993441;28;20208;-70
2022/04/08 08:17:47;;;;;;;0.10;0.10;;;7.70;99.90;12.80;88045.00;;;;4992361;28;20228;-69
2022/04/08 08:20:18;;;;;;;0.10;0.10;;;7.80;99.90;12.80;88045.00;;;;4993060;28;20287;-69
2022/04/08 08:22:47;;;;;;;0.10;0.10;;;7.70;99.90;12.80;88045.00;;;;4993749;28;20189;-69
2022/04/08 08:25:16;;;;;;;0.10;0.10;;;7.70;99.90;12.80;88045.00;;;;4993937;28;20584;-69
2022/04/08 08:27:48;;;;;;;0.03;0.03;;;7.80;99.90;12.80;88045.00;;;;4996384;28;20196;-70
2022/04/08 08:30:17;;;;;;;0.10;0.10;;;7.90;99.90;12.80;88045.00;;;;4997211;28;20606;-70
2022/04/08 08:32:47;;;;;;;0.10;0.10;;;7.90;99.90;12.80;88045.00;;;;4997658;28;20192;-70
2022/04/08 08:35:18;;;;;;;0.10;0.10;;;8.10;99.90;12.80;88045.00;;;;4997969;28;20204;-70
2022/04/08 08:37:47;;;;;;;0.10;0.10;;;8.20;99.90;12.80;88045.00;;;;4997015;28;20204;-70
2022/04/08 08:40:18;;;;;;;0.10;0.10;;;8.10;99.90;12.80;88045.00;;;;4996877;28;20662;-70
2022/04/08 08:42:48;;;;;;;0.10;0.10;;;8.10;99.90;12.80;88045.00;;;;4996299;28;20231;-70
2022/04/08 08:45:18;;;;;;;0.00;0.00;;;8.30;99.90;12.80;88045.00;;;;4996338;28;20211;-70
2022/04/08 08:47:52;;;;;;;0.00;0.00;;;8.30;99.90;12.80;88045.00;;;;4996916;28;20196;-69
2022/04/08 08:50:20;;;;;;;0.10;0.10;;;8.40;99.90;12.80;88045.00;;;;4993698;28;20212;-70
2022/04/08 08:52:52;;;;;;;0.10;0.10;;;8.40;99.90;12.80;88045.00;;;;4994026;28;20192;-69
2022/04/08 08:55:20;;;;;;;0.10;0.10;;;8.30;99.90;12.80;88045.00;;;;4975503;28;20200;-70
2022/04/08 08:57:52;;;;;;;0.10;0.10;;;8.30;99.90;12.80;88045.00;;;;4992501;28;20188;-70
2022/04/08 09:00:23;;;;;;;0.10;0.10;;;8.40;99.90;12.80;88045.00;;;;4992764;28;20697;-69
2022/04/08 09:02:52;;;;;;;0.10;0.10;;;8.40;99.90;12.80;88045.00;;;;4994398;28;20216;-70
2022/04/08 09:05:23;;;;;;;0.10;0.10;;;8.20;99.90;12.80;88045.00;;;;4996029;28;20189;-69
2022/04/08 09:07:56;;;;;;;0.10;0.10;;;8.50;99.90;12.80;88045.00;;;;4976207;28;20212;-69
2022/04/08 09:10:29;;;;;;;0.10;0.10;;;8.70;99.90;12.80;88045.00;;;;4992904;28;20207;-69
2022/04/08 09:13:01;;;;;;;0.10;0.10;;;8.70;99.90;12.80;88045.00;;;;4992786;28;20196;-69
2022/04/08 09:15:29;;;;;;;0.10;0.10;;;8.80;99.90;12.80;88045.00;;;;4995662;28;20271;-69
2022/04/08 09:18:07;;;;;;;0.10;0.10;;;8.60;99.90;12.80;88045.00;;;;4995854;28;20200;-69
2022/04/08 09:20:44;;;;;;;0.10;0.10;;;8.80;99.90;12.80;88045.00;;;;4994896;28;20225;-69
2022/04/08 09:23:14;;;;;;;0.10;0.10;;;9.00;99.90;12.80;88045.00;;;;4994436;28;20223;-70
2022/04/08 09:25:43;;;;;;;0.10;0.10;;;9.10;99.90;12.80;88045.00;;;;4992643;28;20217;-70
2022/04/08 09:28:15;;;;;;;0.10;0.10;;;9.20;99.90;12.80;88045.00;;;;4992851;28;20199;-70
2022/04/08 09:30:52;;;;;;;0.10;0.10;;;9.20;99.90;12.80;88045.00;;;;4992913;28;20200;-70
2022/04/08 09:33:23;;;;;;;0.10;0.10;;;9.10;99.90;12.80;88045.00;;;;4993514;28;20224;-70
2022/04/08 09:35:55;;;;;;;0.08;0.08;;;9.00;99.90;12.80;88045.00;;;;4994559;28;20223;-70
2022/04/08 09:38:26;;;;;;;0.10;0.10;;;8.80;99.90;12.80;88045.00;;;;4993727;28;20201;-69
2022/04/08 09:41:02;;;;;;;0.10;0.10;;;8.80;99.90;12.80;88045.00;;;;4995319;28;20203;-69
2022/04/08 09:43:37;;;;;;;0.10;0.10;;;8.70;99.90;12.80;88045.00;;;;4996150;28;20614;-70
2022/04/08 09:46:16;;;;;;;0.00;0.00;;;8.70;99.90;12.80;88045.00;;;;4995779;28;20274;-69
2022/04/08 09:48:45;;;;;;;0.10;0.10;;;8.70;99.90;12.80;88045.00;;;;4996108;28;20208;-70
2022/04/08 09:51:20;;;;;;;0.10;0.10;;;8.70;99.90;12.80;88045.00;;;;4996006;28;20204;-70
2022/04/08 09:53:54;;;;;;;0.10;0.10;;;8.60;99.90;12.80;88045.00;;;;4997656;28;20220;-70
2022/04/08 09:56:26;;;;;;;0.10;0.10;;;8.50;99.90;12.80;88045.00;;;;4995561;28;20220;-70
2022/04/08 09:59:05;;;;;;;0.10;0.10;;;8.60;99.90;12.80;88045.00;;;;4995003;28;20220;-70
2022/04/08 10:01:35;;;;;;;0.10;0.10;;;8.60;99.90;12.80;88045.00;;;;4996098;28;20223;-70
2022/04/08 10:04:07;;;;;;;0.10;0.10;;;8.50;99.90;12.80;88045.00;;;;4997512;28;20188;-70
2022/04/08 10:06:36;;;;;;;0.10;0.10;;;8.50;99.90;12.80;88045.00;;;;4995980;28;20231;-70
2022/04/08 10:09:07;;;;;;;0.10;0.10;;;8.60;99.90;12.80;88045.00;;;;4996242;28;20669;-70
2022/04/08 10:11:46;;;;;;;0.00;0.00;;;8.40;99.90;12.80;88045.00;;;;4995570;28;20196;-70
2022/04/08 10:14:35;;;;;;;0.10;0.10;;;8.50;99.90;12.80;88045.00;;;;4996065;28;20192;-70
2022/04/08 10:17:06;;;;;;;0.10;0.10;;;8.50;99.90;12.80;88045.00;;;;4978165;28;20220;-70
2022/04/08 10:19:35;;;;;;;0.10;0.10;;;8.60;99.90;12.80;88045.00;;;;4995108;28;20273;-70
2022/04/08 10:22:17;;;;;;;0.10;0.10;;;8.80;99.90;12.80;88045.00;;;;4995154;28;20188;-70
2022/04/08 10:24:54;;;;;;;0.10;0.10;;;8.80;99.90;12.80;88045.00;;;;4994555;28;20188;-70
2022/04/08 10:27:32;;;;;;;0.10;0.10;;;8.60;99.90;12.80;88045.00;;;;4994615;28;20634;-70
2022/04/08 10:30:10;;;;;;;0.10;0.10;;;8.70;99.90;12.80;88045.00;;;;4993992;28;20669;-70
2022/04/08 10:32:40;;;;;;;0.00;0.00;;;8.80;99.90;12.80;88045.00;;;;4993547;28;20615;-70
2022/04/08 10:35:20;;;;;;;0.10;0.10;;;8.80;99.90;12.80;88045.00;;;;4994681;28;20203;-70
2022/04/08 10:38:00;;;;;;;0.10;0.10;;;8.90;99.90;12.80;88045.00;;;;4995477;28;20633;-70
2022/04/08 10:40:33;;;;;;;0.10;0.10;;;8.80;99.90;12.80;88045.00;;;;4997990;28;20224;-70
2022/04/08 10:43:04;;;;;;;0.00;0.00;;;8.80;99.90;12.80;88045.00;;;;4995557;28;20662;-69
2022/04/08 10:45:34;;;;;;;0.08;0.08;;;8.80;99.90;12.80;88045.00;;;;5004416;28;20322;-69
2022/04/08 10:48:12;;;;;;;0.10;0.10;;;8.80;99.90;12.80;88045.00;;;;4994733;28;20396;-69
2022/04/08 10:50:42;;;;;;;0.10;0.10;;;8.80;99.90;12.80;88045.00;;;;4994584;28;20200;-69
2022/04/08 10:53:12;;;;;;;0.00;0.00;;;8.80;99.90;12.80;88045.00;;;;5002889;28;20203;-70
2022/04/08 10:55:49;;;;;;;0.10;0.10;;;8.90;99.90;12.80;88045.00;;;;5013947;28;20216;-69
2022/04/08 10:58:31;;;;;;;0.10;0.10;;;8.80;99.90;12.80;88045.00;;;;5014567;28;20200;-71
2022/04/08 11:01:01;;;;;;;0.10;0.10;;;8.60;99.90;12.80;88045.00;;;;5014298;28;20583;-69
2022/04/08 11:03:29;;;;;;;0.10;0.10;;;8.70;99.90;12.80;88045.00;;;;5014179;28;20200;-69
2022/04/08 11:05:58;;;;;;;0.10;0.10;;;8.60;99.90;12.80;88045.00;;;;5014053;28;20697;-69
2022/04/08 11:08:26;;;;;;;0.00;0.00;;;8.50;99.90;12.80;88045.00;;;;5014731;28;20596;-70
2022/04/08 11:10:58;;;;;;;0.10;0.10;;;8.40;99.90;12.80;88045.00;;;;5014221;28;20289;-71
2022/04/08 11:13:26;;;;;;;0.10;0.10;;;8.40;99.90;12.80;88045.00;;;;5013621;28;20191;-69